Time;durP1;ratioP1;P1;durP2;ratioP2;P2;SDS_P1;SDS_P2;PMS_P1;PMS_P2;Temp;Humidity;BMP_temperature;BMP_pressure;BME280_temperature;BME280_humidity;BME280_pressure;Samples;Min_cycle;Max_cycle;Signal;HPM_P1;HPM_P2
2023/05/06 00:02:16;;;;;;;9.77;8.40;;;13.40;99.90;;;;;;5091377;28;20044;-59
2023/05/06 00:04:42;;;;;;;11.23;9.52;;;13.30;99.90;;;;;;5092680;28;20047;-58
2023/05/06 00:07:07;;;;;;;11.93;9.10;;;13.30;99.90;;;;;;5092264;28;20409;-58
2023/05/06 00:09:33;;;;;;;9.95;8.77;;;13.20;99.90;;;;;;5092476;28;20067;-59
2023/05/06 00:11:59;;;;;;;10.98;9.00;;;13.10;99.90;;;;;;5092309;28;20080;-59
2023/05/06 00:14:24;;;;;;;12.65;8.57;;;13.20;99.90;;;;;;5096365;28;20040;-59
2023/05/06 00:16:50;;;;;;;11.30;9.30;;;13.20;99.90;;;;;;5096434;28;20043;-59
2023/05/06 00:19:16;;;;;;;10.35;9.15;;;13.00;99.90;;;;;;5096306;28;20051;-58
2023/05/06 00:21:41;;;;;;;15.73;9.90;;;13.10;99.90;;;;;;5095270;28;20040;-58
2023/05/06 00:24:07;;;;;;;10.90;9.35;;;12.90;99.90;;;;;;5096601;28;20040;-59
2023/05/06 00:26:33;;;;;;;12.57;9.65;;;13.00;99.90;;;;;;5095920;28;20039;-59
2023/05/06 00:28:58;;;;;;;12.07;9.48;;;13.00;99.90;;;;;;5095851;28;20063;-59
2023/05/06 00:31:24;;;;;;;16.88;10.40;;;13.00;99.90;;;;;;5096323;28;20090;-59
2023/05/06 00:33:50;;;;;;;13.75;9.98;;;12.80;99.90;;;;;;5094656;28;20065;-59
2023/05/06 00:36:15;;;;;;;14.02;9.90;;;12.80;99.90;;;;;;5096302;28;20043;-59
2023/05/06 00:38:41;;;;;;;14.27;12.32;;;12.90;99.90;;;;;;5096336;28;20044;-59
2023/05/06 00:41:07;;;;;;;15.95;11.77;;;12.80;99.90;;;;;;5096147;28;20549;-59
2023/05/06 00:43:32;;;;;;;12.30;10.32;;;12.70;99.90;;;;;;5095921;28;20036;-59
2023/05/06 00:45:58;;;;;;;13.43;10.73;;;12.90;99.90;;;;;;5094850;28;20044;-60
2023/05/06 00:48:24;;;;;;;12.13;10.23;;;12.70;99.90;;;;;;5096130;28;20445;-59
2023/05/06 00:50:50;;;;;;;14.45;10.18;;;12.70;99.90;;;;;;5094899;28;20044;-58
2023/05/06 00:53:19;;;;;;;15.98;10.55;;;12.70;99.90;;;;;;5095601;28;20043;-59
2023/05/06 00:55:45;;;;;;;16.58;11.25;;;12.70;99.90;;;;;;5096072;28;20469;-59
2023/05/06 00:58:12;;;;;;;14.23;9.63;;;12.70;99.90;;;;;;5095976;28;20097;-60
2023/05/06 01:00:39;;;;;;;11.75;9.27;;;12.90;99.90;;;;;;5094194;28;20476;-58
2023/05/06 01:03:04;;;;;;;11.15;9.85;;;12.80;99.90;;;;;;5095751;28;20084;-58
2023/05/06 01:05:35;;;;;;;11.90;9.73;;;13.00;99.90;;;;;;5095534;28;20028;-58
2023/05/06 01:08:10;;;;;;;13.10;10.80;;;12.90;99.90;;;;;;5094649;28;20048;-58
2023/05/06 01:11:01;;;;;;;11.45;10.15;;;12.90;99.90;;;;;;5095258;28;20040;-58
2023/05/06 01:13:32;;;;;;;11.98;8.73;;;13.00;99.90;;;;;;5095511;28;20040;-58
2023/05/06 01:15:59;;;;;;;12.63;10.13;;;13.00;99.90;;;;;;5095577;28;20127;-59
2023/05/06 01:18:30;;;;;;;12.82;10.48;;;12.90;99.90;;;;;;5095191;28;20459;-58
2023/05/06 01:20:56;;;;;;;13.60;9.82;;;12.80;99.90;;;;;;5095241;28;20032;-58
2023/05/06 01:23:22;;;;;;;14.18;9.55;;;12.80;99.90;;;;;;5095547;28;20062;-58
2023/05/06 01:25:48;;;;;;;15.07;9.30;;;12.80;99.90;;;;;;5094788;28;20385;-58
2023/05/06 01:28:13;;;;;;;13.80;9.35;;;12.90;99.90;;;;;;5094798;28;20040;-59
2023/05/06 01:30:51;;;;;;;12.77;9.35;;;12.80;99.90;;;;;;5094750;28;20127;-59
2023/05/06 01:33:34;;;;;;;9.38;8.48;;;12.70;99.90;;;;;;5095047;28;20047;-58
2023/05/06 01:36:52;;;;;;;10.75;8.65;;;12.70;99.90;;;;;;5095327;28;20040;-58
2023/05/06 01:39:25;;;;;;;12.50;9.75;;;13.00;99.90;;;;;;5052218;28;20088;-59
2023/05/06 01:41:54;;;;;;;13.63;9.52;;;12.90;99.90;;;;;;5052316;28;20518;-58
2023/05/06 01:44:22;;;;;;;9.88;8.80;;;12.80;99.90;;;;;;5052246;28;20075;-59
2023/05/06 01:46:49;;;;;;;11.95;9.63;;;12.80;99.90;;;;;;5052104;28;20076;-58
2023/05/06 01:49:16;;;;;;;13.30;9.95;;;12.60;99.90;;;;;;5052067;28;20146;-58
2023/05/06 01:51:49;;;;;;;11.90;9.43;;;12.80;99.90;;;;;;5052042;28;20441;-59
2023/05/06 01:54:15;;;;;;;12.25;10.00;;;12.80;99.90;;;;;;5052102;28;20393;-59
2023/05/06 01:56:40;;;;;;;14.32;9.20;;;12.60;99.90;;;;;;5052062;28;20049;-59
2023/05/06 01:59:06;;;;;;;11.98;9.23;;;12.70;99.90;;;;;;5052280;28;20045;-59
2023/05/06 02:01:32;;;;;;;12.45;8.85;;;12.50;99.90;;;;;;5052041;28;20075;-59
2023/05/06 02:03:57;;;;;;;10.18;9.18;;;12.60;99.90;;;;;;5052027;28;20048;-59
2023/05/06 02:06:23;;;;;;;9.93;8.50;;;12.40;99.90;;;;;;5051803;28;20474;-58
2023/05/06 02:08:49;;;;;;;12.32;8.40;;;12.40;99.90;;;;;;5051715;28;20132;-58
2023/05/06 02:11:15;;;;;;;11.80;8.73;;;12.50;99.90;;;;;;5051844;28;20128;-58
2023/05/06 02:13:41;;;;;;;10.63;9.02;;;12.40;99.90;;;;;;5052293;28;20372;-58
2023/05/06 02:16:07;;;;;;;11.80;8.75;;;12.30;99.90;;;;;;5094205;28;20064;-58
2023/05/06 02:18:33;;;;;;;10.45;8.45;;;12.30;99.90;;;;;;5094199;28;20047;-59
2023/05/06 02:20:59;;;;;;;10.77;9.55;;;12.30;99.90;;;;;;5092702;28;20071;-58
2023/05/06 02:23:25;;;;;;;9.25;8.00;;;12.30;99.90;;;;;;5094096;28;20066;-60
2023/05/06 02:25:51;;;;;;;11.18;8.18;;;12.10;99.90;;;;;;5093949;28;20055;-60
2023/05/06 02:28:17;;;;;;;16.80;10.00;;;12.10;99.90;;;;;;5093566;28;20048;-59
2023/05/06 02:30:42;;;;;;;12.27;9.55;;;12.20;99.90;;;;;;5093686;28;20114;-59
2023/05/06 02:33:08;;;;;;;10.55;9.45;;;12.10;99.90;;;;;;5093827;28;20047;-58
2023/05/06 02:35:34;;;;;;;11.93;8.65;;;12.10;99.90;;;;;;5093292;28;20044;-59
2023/05/06 02:38:00;;;;;;;12.38;8.98;;;12.10;99.90;;;;;;5093553;28;20044;-58
2023/05/06 02:40:26;;;;;;;14.30;10.93;;;12.20;99.90;;;;;;5093824;28;20067;-58
2023/05/06 02:42:51;;;;;;;15.23;10.82;;;12.00;99.90;;;;;;5093974;28;20090;-59
2023/05/06 02:45:17;;;;;;;15.70;10.82;;;12.00;99.90;;;;;;5093953;28;20479;-58
2023/05/06 02:47:43;;;;;;;15.30;11.00;;;12.00;99.90;;;;;;5093747;28;20073;-58
2023/05/06 02:50:08;;;;;;;14.95;11.60;;;12.10;99.90;;;;;;5093231;28;20051;-58
2023/05/06 02:52:34;;;;;;;16.75;12.38;;;12.00;99.90;;;;;;5093846;28;20478;-59
2023/05/06 02:55:00;;;;;;;17.40;11.50;;;12.00;99.90;;;;;;5093606;28;20036;-59
2023/05/06 02:57:26;;;;;;;15.20;11.40;;;12.00;99.90;;;;;;5093059;28;20040;-59
2023/05/06 02:59:52;;;;;;;12.27;9.93;;;11.90;99.90;;;;;;5093189;28;20036;-59
2023/05/06 03:02:17;;;;;;;12.48;10.43;;;12.00;99.90;;;;;;5093159;28;20064;-59
2023/05/06 03:04:43;;;;;;;13.15;10.55;;;12.10;99.90;;;;;;5091803;28;20474;-58
2023/05/06 03:07:09;;;;;;;14.38;10.70;;;12.00;99.90;;;;;;5093575;28;20032;-59
2023/05/06 03:09:34;;;;;;;11.18;10.05;;;11.90;99.90;;;;;;5093034;28;20032;-58
2023/05/06 03:12:01;;;;;;;12.25;10.43;;;12.00;99.90;;;;;;5093123;28;20043;-58
2023/05/06 03:14:26;;;;;;;15.32;11.48;;;11.90;99.90;;;;;;5092881;28;20433;-58
2023/05/06 03:16:52;;;;;;;14.40;10.80;;;11.90;99.90;;;;;;5093141;28;20039;-58
2023/05/06 03:19:18;;;;;;;13.93;10.02;;;12.00;99.90;;;;;;5092774;28;20398;-58
2023/05/06 03:21:43;;;;;;;13.50;9.95;;;12.00;99.90;;;;;;5093068;28;20458;-58
2023/05/06 03:24:09;;;;;;;10.73;9.32;;;11.90;99.90;;;;;;5092769;28;20040;-59
2023/05/06 03:26:35;;;;;;;17.92;10.20;;;11.80;99.90;;;;;;5091122;28;20172;-58
2023/05/06 03:29:00;;;;;;;12.35;9.98;;;11.80;99.90;;;;;;5092666;28;20058;-59
2023/05/06 03:31:26;;;;;;;14.95;10.50;;;11.80;99.90;;;;;;5091553;28;20051;-58
2023/05/06 03:33:52;;;;;;;11.40;9.40;;;11.70;99.90;;;;;;5092873;28;20043;-59
2023/05/06 03:36:17;;;;;;;12.85;9.88;;;11.80;99.90;;;;;;5092949;28;20042;-59
2023/05/06 03:38:43;;;;;;;12.45;9.88;;;11.70;99.90;;;;;;5092924;28;20092;-59
2023/05/06 03:41:08;;;;;;;13.73;9.95;;;11.50;99.90;;;;;;5092810;28;20079;-59
2023/05/06 03:43:34;;;;;;;12.63;9.27;;;11.50;99.90;;;;;;5092892;28;20107;-59
2023/05/06 03:46:00;;;;;;;12.93;10.05;;;11.50;99.90;;;;;;5092814;28;20047;-59
2023/05/06 03:48:26;;;;;;;10.77;9.73;;;11.40;99.90;;;;;;5091788;28;20040;-59
2023/05/06 03:50:51;;;;;;;13.40;10.32;;;11.40;99.90;;;;;;5092659;28;20498;-59
2023/05/06 03:53:17;;;;;;;12.25;10.77;;;11.40;99.90;;;;;;5091060;28;20131;-59
2023/05/06 03:55:43;;;;;;;11.98;9.98;;;11.40;99.90;;;;;;5092457;28;20044;-59
2023/05/06 03:58:10;;;;;;;12.02;10.65;;;11.30;99.90;;;;;;5092506;28;20040;-59
2023/05/06 04:00:35;;;;;;;11.60;10.35;;;11.30;99.90;;;;;;5092482;28;20093;-59
2023/05/06 04:03:01;;;;;;;12.60;10.05;;;11.20;99.90;;;;;;5092713;28;20040;-59
2023/05/06 04:05:27;;;;;;;11.93;10.73;;;11.30;99.90;;;;;;5091558;28;20861;-60
2023/05/06 04:07:53;;;;;;;13.55;11.15;;;11.30;99.90;;;;;;5091421;28;20039;-59
2023/05/06 04:10:20;;;;;;;13.95;10.60;;;11.30;99.90;;;;;;5092421;28;20036;-59
2023/05/06 04:12:46;;;;;;;13.65;10.70;;;11.30;99.90;;;;;;5092768;28;20039;-60
2023/05/06 04:15:11;;;;;;;11.18;9.98;;;11.30;99.90;;;;;;5092542;28;20037;-60
2023/05/06 04:17:37;;;;;;;14.05;11.40;;;11.40;99.90;;;;;;5092482;28;20079;-59
2023/05/06 04:20:05;;;;;;;15.05;11.18;;;11.30;99.90;;;;;;5092656;28;20462;-59
2023/05/06 04:22:31;;;;;;;19.58;11.57;;;11.30;99.90;;;;;;5092442;28;20075;-59
2023/05/06 04:24:59;;;;;;;13.95;12.27;;;11.30;99.90;;;;;;5092472;28;20071;-59
2023/05/06 04:27:28;;;;;;;14.73;11.70;;;11.50;99.90;;;;;;5092137;28;20521;-59
2023/05/06 04:29:54;;;;;;;14.45;11.88;;;11.60;99.90;;;;;;5092151;28;20287;-59
2023/05/06 04:32:24;;;;;;;16.20;12.88;;;11.60;99.90;;;;;;5092387;28;20043;-59
2023/05/06 04:34:50;;;;;;;15.63;12.43;;;11.50;99.90;;;;;;5092529;28;20047;-59
2023/05/06 04:37:17;;;;;;;15.73;11.27;;;11.60;99.90;;;;;;5092230;28;20036;-59
2023/05/06 04:39:46;;;;;;;12.15;10.45;;;11.60;99.90;;;;;;5092346;28;20048;-59
2023/05/06 04:42:13;;;;;;;13.65;10.80;;;11.80;99.90;;;;;;5091380;28;20100;-59
2023/05/06 04:44:38;;;;;;;13.85;11.13;;;11.80;99.90;;;;;;5092585;28;20425;-59
2023/05/06 04:47:04;;;;;;;13.73;11.45;;;11.70;99.90;;;;;;5091724;28;20482;-59
2023/05/06 04:49:30;;;;;;;13.80;11.50;;;11.60;99.90;;;;;;5092354;28;20096;-60
2023/05/06 04:51:56;;;;;;;16.80;12.15;;;11.90;99.90;;;;;;5092239;28;20040;-59
2023/05/06 04:54:22;;;;;;;16.83;12.45;;;11.70;99.90;;;;;;5090841;28;20152;-59
2023/05/06 04:56:47;;;;;;;16.42;13.38;;;11.80;99.90;;;;;;5091869;28;20169;-59
2023/05/06 04:59:13;;;;;;;18.23;12.35;;;11.90;99.90;;;;;;5093485;28;20028;-59
2023/05/06 05:01:39;;;;;;;20.60;14.63;;;11.90;99.90;;;;;;5095921;28;20028;-59
2023/05/06 05:04:04;;;;;;;16.38;13.60;;;11.90;99.90;;;;;;5094333;28;20031;-60
2023/05/06 05:06:30;;;;;;;19.73;14.18;;;12.10;99.90;;;;;;5095779;28;20115;-59
2023/05/06 05:08:57;;;;;;;17.08;13.25;;;12.20;99.90;;;;;;5095372;28;20044;-59
2023/05/06 05:11:22;;;;;;;18.70;13.20;;;12.30;99.90;;;;;;5095675;28;20051;-59
2023/05/06 05:13:48;;;;;;;19.98;13.60;;;12.30;99.90;;;;;;5095921;28;20441;-60
2023/05/06 05:16:14;;;;;;;17.92;13.65;;;12.20;99.90;;;;;;5095520;28;20524;-60
2023/05/06 05:18:39;;;;;;;15.13;13.27;;;12.40;99.90;;;;;;5094067;28;20115;-61
2023/05/06 05:21:05;;;;;;;17.88;13.90;;;12.20;99.90;;;;;;5095457;28;20068;-59
2023/05/06 05:23:31;;;;;;;24.30;14.43;;;12.50;99.90;;;;;;5095406;28;20363;-59
2023/05/06 05:25:56;;;;;;;15.85;13.15;;;12.50;99.90;;;;;;5095588;28;20549;-59
2023/05/06 05:28:22;;;;;;;16.35;13.75;;;12.50;99.90;;;;;;5095373;28;20081;-59
2023/05/06 05:30:48;;;;;;;16.95;13.88;;;12.50;99.90;;;;;;5094926;28;20106;-59
2023/05/06 05:33:13;;;;;;;16.85;13.98;;;12.60;99.90;;;;;;5094926;28;20375;-59
2023/05/06 05:35:39;;;;;;;19.92;13.73;;;12.40;99.90;;;;;;5094898;28;20044;-59
2023/05/06 05:38:05;;;;;;;20.40;14.32;;;12.40;99.90;;;;;;5095078;28;20047;-59
2023/05/06 05:40:30;;;;;;;19.00;14.38;;;12.40;99.90;;;;;;5095078;28;20032;-59
2023/05/06 05:42:56;;;;;;;22.48;13.95;;;12.60;99.90;;;;;;5095018;28;20036;-59
2023/05/06 05:45:21;;;;;;;20.10;14.85;;;12.50;99.90;;;;;;5095051;28;20036;-59
2023/05/06 05:47:47;;;;;;;20.83;14.43;;;12.60;99.90;;;;;;5094700;28;20075;-59
2023/05/06 05:50:13;;;;;;;21.05;14.65;;;12.50;99.90;;;;;;5094720;28;20114;-59
2023/05/06 05:52:38;;;;;;;22.88;16.02;;;12.50;99.90;;;;;;5094532;28;20054;-59
2023/05/06 05:55:05;;;;;;;19.15;14.60;;;12.50;99.90;;;;;;5094706;28;20040;-59
2023/05/06 05:57:30;;;;;;;19.65;15.43;;;12.70;99.90;;;;;;5094775;28;20367;-59
2023/05/06 05:59:57;;;;;;;23.98;16.83;;;12.60;99.90;;;;;;5092715;28;20055;-59
2023/05/06 06:02:22;;;;;;;22.23;15.90;;;12.70;99.90;;;;;;5094676;28;20047;-59
2023/05/06 06:04:48;;;;;;;20.88;15.88;;;12.70;99.90;;;;;;5093975;28;20048;-59
2023/05/06 06:07:14;;;;;;;17.77;14.88;;;12.70;99.90;;;;;;5094413;28;20046;-59
2023/05/06 06:09:40;;;;;;;22.15;16.27;;;12.60;99.90;;;;;;5094188;28;20043;-59
2023/05/06 06:12:06;;;;;;;20.25;14.82;;;12.70;99.90;;;;;;5093944;28;20044;-59
2023/05/06 06:14:31;;;;;;;21.00;15.43;;;12.60;99.90;;;;;;5094389;28;20044;-60
2023/05/06 06:16:57;;;;;;;19.23;14.82;;;12.60;99.90;;;;;;5094312;28;20054;-59
2023/05/06 06:19:23;;;;;;;21.08;14.98;;;12.80;99.90;;;;;;5094601;28;20486;-60
2023/05/06 06:21:48;;;;;;;22.52;14.80;;;12.70;99.90;;;;;;5094428;28;20496;-59
2023/05/06 06:24:14;;;;;;;20.48;14.60;;;12.70;99.90;;;;;;5094095;28;20464;-60
2023/05/06 06:26:40;;;;;;;18.48;13.68;;;12.60;99.90;;;;;;5094104;28;20036;-59
2023/05/06 06:29:05;;;;;;;20.67;15.15;;;12.70;99.90;;;;;;5092816;28;20132;-59
2023/05/06 06:31:33;;;;;;;21.75;15.43;;;12.70;99.90;;;;;;5094102;28;20417;-60
2023/05/06 06:33:59;;;;;;;22.25;16.60;;;12.70;99.90;;;;;;5094051;28;20036;-59
2023/05/06 06:36:24;;;;;;;20.60;15.30;;;12.60;99.90;;;;;;5093728;28;20040;-59
2023/05/06 06:38:50;;;;;;;24.38;17.38;;;12.80;99.90;;;;;;5093820;28;20040;-59
2023/05/06 06:41:16;;;;;;;21.17;16.17;;;12.80;99.90;;;;;;5093614;28;20036;-59
2023/05/06 06:43:42;;;;;;;21.23;15.07;;;12.80;99.90;;;;;;5093816;28;20066;-59
2023/05/06 06:46:07;;;;;;;20.50;15.18;;;12.80;99.90;;;;;;5093631;28;20036;-59
2023/05/06 06:48:33;;;;;;;22.58;15.32;;;12.90;99.90;;;;;;5093739;28;20052;-59
2023/05/06 06:50:58;;;;;;;19.65;15.00;;;12.80;99.90;;;;;;5093352;28;20043;-59
2023/05/06 06:53:24;;;;;;;20.33;15.43;;;12.90;99.90;;;;;;5093243;28;20032;-59
2023/05/06 06:55:50;;;;;;;19.13;14.60;;;12.80;99.90;;;;;;5092316;28;20044;-59
2023/05/06 06:58:15;;;;;;;20.27;14.60;;;12.80;99.90;;;;;;5093575;28;20036;-59
2023/05/06 07:00:41;;;;;;;19.30;13.45;;;12.70;99.90;;;;;;5093256;28;20051;-59
2023/05/06 07:03:07;;;;;;;20.70;14.65;;;12.90;99.90;;;;;;5093659;28;20036;-59
2023/05/06 07:05:32;;;;;;;18.67;14.40;;;12.90;99.90;;;;;;5093477;28;20036;-59
2023/05/06 07:07:58;;;;;;;21.05;15.00;;;13.00;99.90;;;;;;5093540;28;20044;-59
2023/05/06 07:10:24;;;;;;;17.70;13.98;;;12.90;99.90;;;;;;5093281;28;20050;-60
2023/05/06 07:12:50;;;;;;;27.63;14.77;;;13.00;99.90;;;;;;5093242;28;20063;-59
2023/05/06 07:15:16;;;;;;;18.55;14.20;;;13.10;99.90;;;;;;5093377;28;20036;-59
2023/05/06 07:17:42;;;;;;;19.00;15.10;;;13.10;99.90;;;;;;5093414;28;20062;-59
2023/05/06 07:20:08;;;;;;;21.08;14.40;;;12.90;99.90;;;;;;5093214;28;20040;-59
2023/05/06 07:22:34;;;;;;;23.35;15.35;;;13.10;99.90;;;;;;5092824;28;20032;-59
2023/05/06 07:25:00;;;;;;;20.30;14.65;;;13.00;99.90;;;;;;5091650;28;20047;-59
2023/05/06 07:27:29;;;;;;;19.38;14.98;;;13.20;99.90;;;;;;5093269;28;20040;-60
2023/05/06 07:29:54;;;;;;;18.55;14.77;;;13.30;99.90;;;;;;5091532;28;20060;-63
2023/05/06 07:32:20;;;;;;;21.52;15.63;;;13.30;99.90;;;;;;5093079;28;20459;-58
2023/05/06 07:34:46;;;;;;;20.77;15.15;;;13.20;99.90;;;;;;5092936;28;20040;-58
2023/05/06 07:37:11;;;;;;;22.08;14.77;;;13.20;99.90;;;;;;5093166;28;20040;-59
2023/05/06 07:39:37;;;;;;;19.65;15.00;;;13.20;99.90;;;;;;5092949;28;20118;-59
2023/05/06 07:42:03;;;;;;;22.13;15.32;;;13.30;99.90;;;;;;5093013;28;20458;-58
2023/05/06 07:44:28;;;;;;;19.15;15.00;;;13.20;99.90;;;;;;5092653;28;20128;-58
2023/05/06 07:46:54;;;;;;;20.20;14.40;;;13.30;99.90;;;;;;5092630;28;20036;-58
2023/05/06 07:49:20;;;;;;;19.33;14.38;;;13.30;99.90;;;;;;5092359;28;20043;-58
2023/05/06 07:51:45;;;;;;;20.77;14.73;;;13.50;99.90;;;;;;5092564;28;20467;-58
2023/05/06 07:54:11;;;;;;;19.95;14.90;;;13.60;99.90;;;;;;5092232;28;20032;-58
2023/05/06 07:56:37;;;;;;;20.52;14.50;;;13.40;99.90;;;;;;5092458;28;20269;-58
2023/05/06 07:59:03;;;;;;;20.60;15.57;;;13.70;99.90;;;;;;5092674;28;20036;-57
2023/05/06 08:01:28;;;;;;;18.52;14.48;;;13.90;99.90;;;;;;5092669;28;20035;-58
2023/05/06 08:03:54;;;;;;;21.17;15.02;;;13.90;99.90;;;;;;5092319;28;20551;-58
2023/05/06 08:06:20;;;;;;;18.40;14.23;;;14.10;99.90;;;;;;5092562;28;20085;-59
2023/05/06 08:08:46;;;;;;;18.05;13.88;;;14.30;99.90;;;;;;5092676;28;20069;-59
2023/05/06 08:11:12;;;;;;;19.30;13.45;;;14.30;99.90;;;;;;5093040;28;20078;-59
2023/05/06 08:13:37;;;;;;;19.88;14.80;;;14.40;99.90;;;;;;5093024;28;20040;-59
2023/05/06 08:16:05;;;;;;;17.60;12.80;;;14.60;99.90;;;;;;5092805;28;20075;-58
2023/05/06 08:18:31;;;;;;;16.17;13.20;;;14.70;99.90;;;;;;5092729;28;20044;-58
2023/05/06 08:20:57;;;;;;;14.63;12.00;;;15.30;99.90;;;;;;5092710;28;20043;-59
2023/05/06 08:23:23;;;;;;;13.95;11.27;;;15.70;99.90;;;;;;5092820;28;20115;-59
2023/05/06 08:25:48;;;;;;;13.90;11.90;;;16.10;99.90;;;;;;5092695;28;20528;-59
2023/05/06 08:28:14;;;;;;;13.80;10.02;;;16.40;99.90;;;;;;5090846;28;20044;-59
2023/05/06 08:30:40;;;;;;;13.70;10.73;;;16.70;99.90;;;;;;5092180;28;20048;-59
2023/05/06 08:33:05;;;;;;;11.30;10.02;;;17.00;99.90;;;;;;5092493;28;20493;-60
2023/05/06 08:35:31;;;;;;;9.52;8.48;;;17.30;99.90;;;;;;5096032;28;20040;-59
2023/05/06 08:37:57;;;;;;;10.77;8.25;;;17.40;99.90;;;;;;5096473;28;20028;-58
2023/05/06 08:40:25;;;;;;;9.50;7.53;;;17.70;99.90;;;;;;5096468;28;20040;-58
2023/05/06 08:42:53;;;;;;;10.10;8.75;;;18.10;99.90;;;;;;5096322;28;20039;-58
2023/05/06 08:45:19;;;;;;;9.45;7.95;;;18.40;99.90;;;;;;5095907;28;20107;-59
2023/05/06 08:47:46;;;;;;;9.23;8.32;;;18.50;99.90;;;;;;5095979;28;20505;-59
2023/05/06 08:50:12;;;;;;;9.10;7.93;;;18.60;99.90;;;;;;5094897;28;20040;-60
2023/05/06 08:52:38;;;;;;;8.00;6.93;;;18.90;99.90;;;;;;5095976;28;20390;-60
2023/05/06 08:55:05;;;;;;;8.13;7.03;;;18.90;99.90;;;;;;5094584;28;20044;-60
2023/05/06 08:57:32;;;;;;;8.50;7.13;;;19.00;99.90;;;;;;5095788;28;20054;-60
2023/05/06 08:59:58;;;;;;;7.70;6.85;;;19.00;99.90;;;;;;5096049;28;20036;-59
2023/05/06 09:02:24;;;;;;;9.13;6.80;;;19.10;99.90;;;;;;5095791;28;20036;-60
2023/05/06 09:04:55;;;;;;;6.53;5.82;;;19.20;99.90;;;;;;5095996;28;20040;-60
2023/05/06 09:07:22;;;;;;;8.90;6.60;;;19.50;99.90;;;;;;5094268;28;20039;-59
2023/05/06 09:09:48;;;;;;;9.80;7.13;;;19.70;99.90;;;;;;5095587;28;20054;-60
2023/05/06 09:12:14;;;;;;;9.00;7.97;;;19.90;99.90;;;;;;5095378;28;20040;-60
2023/05/06 09:14:43;;;;;;;10.55;7.30;;;19.80;99.90;;;;;;5095716;28;20044;-60
2023/05/06 09:17:26;;;;;;;8.23;7.32;;;20.00;99.90;;;;;;5095496;28;20377;-59
2023/05/06 09:19:53;;;;;;;8.18;6.68;;;20.20;99.90;;;;;;5095446;28;20451;-60
2023/05/06 09:22:23;;;;;;;8.57;6.97;;;20.40;99.90;;;;;;5095265;28;20481;-60
2023/05/06 09:24:55;;;;;;;7.28;6.50;;;20.80;99.90;;;;;;5095402;28;20046;-60
2023/05/06 09:27:30;;;;;;;9.55;7.25;;;20.90;99.90;;;;;;5095515;28;20039;-61
2023/05/06 09:30:14;;;;;;;9.23;7.00;;;20.80;99.90;;;;;;5093687;28;20156;-60
2023/05/06 09:32:40;;;;;;;8.65;6.70;;;20.90;99.90;;;;;;5095433;28;20111;-61
2023/05/06 09:35:07;;;;;;;9.80;7.32;;;20.70;99.90;;;;;;5094971;28;20478;-61
2023/05/06 09:37:32;;;;;;;7.35;6.63;;;20.80;99.90;;;;;;5095104;28;20081;-61
2023/05/06 09:39:59;;;;;;;8.35;7.00;;;20.90;99.90;;;;;;5095182;28;20036;-61
2023/05/06 09:42:27;;;;;;;8.77;7.50;;;20.70;99.90;;;;;;5094947;28;20040;-62
2023/05/06 09:44:58;;;;;;;8.15;7.25;;;20.80;99.90;;;;;;5093679;28;20537;-60
2023/05/06 09:47:25;;;;;;;8.02;7.22;;;20.80;99.90;;;;;;5095338;28;20141;-61
2023/05/06 09:49:57;;;;;;;10.15;8.40;;;21.00;99.90;;;;;;5095415;28;20064;-60
2023/05/06 09:52:22;;;;;;;10.05;9.10;;;20.90;99.90;;;;;;5094993;28;20043;-60
2023/05/06 09:54:50;;;;;;;9.77;8.77;;;20.80;99.90;;;;;;5095080;28;20040;-61
2023/05/06 09:57:17;;;;;;;10.65;8.43;;;20.80;99.90;;;;;;5094919;28;20048;-61
2023/05/06 09:59:44;;;;;;;10.48;7.90;;;20.80;99.90;;;;;;5094476;28;20027;-61
2023/05/06 10:02:12;;;;;;;12.05;8.82;;;20.50;99.90;;;;;;5094814;28;20355;-61
2023/05/06 10:04:40;;;;;;;9.82;8.90;;;20.30;99.90;;;;;;5093520;28;20048;-61
2023/05/06 10:07:11;;;;;;;9.38;8.48;;;20.30;99.90;;;;;;5094767;28;20040;-61
2023/05/06 10:09:40;;;;;;;9.77;8.77;;;20.50;99.90;;;;;;5094599;28;20047;-61
2023/05/06 10:12:07;;;;;;;9.02;8.13;;;20.70;99.90;;;;;;5094350;28;20484;-60
2023/05/06 10:14:37;;;;;;;11.95;8.52;;;20.60;99.90;;;;;;5094793;28;20036;-61
2023/05/06 10:17:07;;;;;;;9.50;8.55;;;20.70;99.90;;;;;;5094433;28;20092;-61
2023/05/06 10:19:34;;;;;;;9.40;7.72;;;21.00;99.90;;;;;;5094452;28;20036;-61
2023/05/06 10:22:12;;;;;;;8.70;7.88;;;21.20;99.90;;;;;;5094186;28;20028;-62
2023/05/06 10:24:52;;;;;;;10.75;7.82;;;21.30;99.90;;;;;;5092870;28;20040;-61
2023/05/06 10:27:19;;;;;;;9.10;8.05;;;21.60;99.90;;;;;;5094389;28;20545;-61
2023/05/06 10:29:47;;;;;;;10.48;8.27;;;21.70;99.90;;;;;;5094024;28;20071;-61
2023/05/06 10:32:13;;;;;;;9.98;7.95;;;21.70;99.90;;;;;;5093784;28;20048;-61
2023/05/06 10:34:47;;;;;;;8.93;8.02;;;21.80;99.90;;;;;;5094433;28;20039;-61
2023/05/06 10:37:13;;;;;;;9.70;7.88;;;21.80;99.90;;;;;;5093785;28;20045;-62
2023/05/06 10:39:40;;;;;;;9.40;8.35;;;21.70;99.90;;;;;;5093956;28;20162;-62
2023/05/06 10:42:09;;;;;;;9.07;8.02;;;21.80;99.90;;;;;;5093712;28;20036;-61
2023/05/06 10:44:58;;;;;;;9.52;8.60;;;22.00;99.90;;;;;;5093798;28;20040;-62
2023/05/06 10:47:24;;;;;;;9.25;8.25;;;22.00;99.90;;;;;;5093447;28;20482;-61
2023/05/06 10:50:17;;;;;;;9.23;7.70;;;22.30;99.90;;;;;;5093823;28;20125;-62
2023/05/06 10:52:44;;;;;;;9.30;8.15;;;22.70;99.90;;;;;;5093547;28;20035;-61
2023/05/06 10:55:32;;;;;;;9.10;8.20;;;22.90;99.90;;;;;;5093229;28;20050;-62
2023/05/06 10:58:10;;;;;;;9.20;8.27;;;22.80;99.90;;;;;;5091638;28;20444;-61
2023/05/06 11:00:36;;;;;;;9.93;7.75;;;22.90;99.90;;;;;;5093322;28;20397;-61
2023/05/06 11:03:05;;;;;;;8.48;7.57;;;23.10;99.90;;;;;;5093107;28;20040;-61
2023/05/06 11:05:44;;;;;;;8.85;7.95;;;23.10;99.90;;;;;;5093361;28;20089;-62
2023/05/06 11:08:11;;;;;;;7.45;6.75;;;23.10;99.90;;;;;;5092821;28;20044;-61
2023/05/06 11:10:37;;;;;;;8.25;7.18;;;22.70;99.90;;;;;;5093240;28;20477;-61
2023/05/06 11:13:26;;;;;;;8.70;7.03;;;22.40;99.90;;;;;;5091667;28;20112;-61
2023/05/06 11:15:53;;;;;;;8.25;6.65;;;22.00;99.90;;;;;;5093212;28;20044;-61
2023/05/06 11:18:28;;;;;;;7.15;6.40;;;21.70;99.90;;;;;;5092668;28;20040;-61
2023/05/06 11:20:59;;;;;;;9.18;6.47;;;21.60;99.90;;;;;;5092865;28;20486;-62
2023/05/06 11:23:48;;;;;;;9.15;6.57;;;21.40;99.90;;;;;;5092995;28;20036;-61
2023/05/06 11:26:14;;;;;;;8.15;6.60;;;21.30;99.90;;;;;;5092827;28;20097;-61
2023/05/06 11:28:48;;;;;;;9.60;6.32;;;21.20;99.90;;;;;;5091532;28;20364;-62
2023/05/06 11:31:14;;;;;;;7.22;6.25;;;21.00;99.90;;;;;;5092877;28;20047;-61
2023/05/06 11:33:48;;;;;;;9.00;6.45;;;20.90;99.90;;;;;;5090307;28;20089;-61
2023/05/06 11:36:18;;;;;;;11.55;7.35;;;20.90;99.90;;;;;;5092829;28;20142;-61
2023/05/06 11:38:50;;;;;;;11.38;7.78;;;20.60;99.90;;;;;;5091467;28;20044;-61
2023/05/06 11:41:16;;;;;;;8.80;7.05;;;20.40;99.90;;;;;;5091561;28;20044;-61
2023/05/06 11:43:46;;;;;;;9.73;8.10;;;20.30;99.90;;;;;;5092642;28;20145;-61
2023/05/06 11:46:11;;;;;;;8.18;7.47;;;20.20;99.90;;;;;;5092165;28;20047;-62
2023/05/06 11:48:37;;;;;;;10.82;8.00;;;20.10;99.90;;;;;;5091113;28;20048;-61
2023/05/06 11:51:03;;;;;;;8.60;7.35;;;20.00;99.90;;;;;;5092794;28;20032;-60
2023/05/06 11:53:28;;;;;;;11.93;7.60;;;20.00;99.90;;;;;;5092164;28;20036;-61
2023/05/06 11:55:54;;;;;;;8.40;7.57;;;19.80;99.90;;;;;;5092247;28;20482;-61
2023/05/06 11:58:27;;;;;;;10.05;7.53;;;19.80;99.90;;;;;;5091900;28;20054;-61
2023/05/06 12:00:55;;;;;;;9.13;7.63;;;19.60;99.90;;;;;;5092523;28;20040;-61
2023/05/06 12:03:22;;;;;;;10.57;9.13;;;19.40;99.90;;;;;;5091909;28;20474;-61
2023/05/06 12:05:48;;;;;;;12.60;10.15;;;19.20;99.90;;;;;;5092450;28;20040;-61
2023/05/06 12:08:26;;;;;;;11.90;10.50;;;19.00;99.90;;;;;;5092150;28;20036;-60
2023/05/06 12:10:54;;;;;;;17.17;12.10;;;18.90;99.90;;;;;;5096141;28;20043;-60
2023/05/06 12:13:20;;;;;;;15.45;11.27;;;18.70;99.90;;;;;;5096544;28;20047;-60
2023/05/06 12:15:48;;;;;;;12.80;10.68;;;18.50;99.90;;;;;;5096311;28;20097;-60
2023/05/06 12:18:14;;;;;;;12.53;10.43;;;18.30;99.90;;;;;;5096227;28;20474;-60
2023/05/06 12:20:40;;;;;;;15.00;10.40;;;18.20;99.90;;;;;;5095063;28;20577;-59
2023/05/06 12:23:10;;;;;;;13.35;6.55;;;18.00;99.90;;;;;;5096128;28;20118;-60
2023/05/06 12:25:37;;;;;;;8.25;5.90;;;17.70;99.90;;;;;;5096428;28;20466;-60
2023/05/06 12:28:15;;;;;;;11.75;6.20;;;17.50;99.90;;;;;;5096366;28;20126;-58
2023/05/06 12:30:41;;;;;;;10.70;7.53;;;17.30;99.90;;;;;;5095861;28;20059;-58
2023/05/06 12:33:08;;;;;;;13.07;7.60;;;17.20;99.90;;;;;;5095919;28;20036;-59
2023/05/06 12:35:34;;;;;;;13.88;8.85;;;17.00;99.90;;;;;;5077965;28;20103;-59